Time;durP1;ratioP1;P1;durP2;ratioP2;P2;SDS_P1;SDS_P2;PMS_P1;PMS_P2;Temp;Humidity;BMP_temperature;BMP_pressure;BME280_temperature;BME280_humidity;BME280_pressure;Samples;Min_cycle;Max_cycle;Signal;HPM_P1;HPM_P2
2023/10/23 00:01:50;;;;;;;3.70;3.00;;;7.30;99.90;;;;;;5106198;28;20036;-65
2023/10/23 00:04:16;;;;;;;4.57;2.95;;;7.30;99.90;;;;;;5089849;28;20052;-65
2023/10/23 00:06:42;;;;;;;4.05;2.88;;;7.30;99.90;;;;;;5089828;28;20479;-64
2023/10/23 00:09:07;;;;;;;4.63;2.75;;;7.30;99.90;;;;;;5091014;28;20036;-65
2023/10/23 00:11:33;;;;;;;4.97;3.03;;;7.30;99.90;;;;;;5099466;28;20031;-65
2023/10/23 00:13:59;;;;;;;5.25;3.35;;;7.30;99.90;;;;;;5089801;28;20062;-65
2023/10/23 00:16:25;;;;;;;6.32;2.95;;;7.30;99.90;;;;;;5106985;28;20114;-65
2023/10/23 00:18:52;;;;;;;3.47;3.08;;;7.30;99.90;;;;;;5106048;28;20131;-65
2023/10/23 00:21:18;;;;;;;3.22;2.92;;;7.30;99.90;;;;;;5089325;28;20502;-65
2023/10/23 00:23:44;;;;;;;3.85;3.05;;;7.30;99.90;;;;;;5089462;28;20368;-65
2023/10/23 00:26:10;;;;;;;3.03;2.70;;;7.30;99.90;;;;;;5089469;28;20092;-66
2023/10/23 00:28:35;;;;;;;4.30;3.30;;;7.30;99.90;;;;;;5089481;28;20039;-66
2023/10/23 00:31:01;;;;;;;4.03;3.00;;;7.30;99.90;;;;;;5089492;28;20036;-65
2023/10/23 00:33:27;;;;;;;4.57;3.53;;;7.20;99.90;;;;;;5107813;28;20048;-65
2023/10/23 00:35:53;;;;;;;4.35;3.40;;;7.20;99.90;;;;;;5108575;28;20571;-65
2023/10/23 00:38:19;;;;;;;4.15;2.80;;;7.20;99.90;;;;;;5111335;28;20386;-65
2023/10/23 00:40:45;;;;;;;4.72;3.30;;;7.20;99.90;;;;;;5109424;28;20039;-66
2023/10/23 00:43:21;;;;;;;3.22;2.90;;;7.20;99.90;;;;;;5107510;28;20536;-66
2023/10/23 00:45:56;;;;;;;4.28;3.20;;;7.20;99.90;;;;;;5108184;28;20058;-65
2023/10/23 00:48:23;;;;;;;4.05;2.97;;;7.20;99.90;;;;;;5092454;28;20039;-65
2023/10/23 00:50:50;;;;;;;3.53;2.95;;;7.20;99.90;;;;;;5109159;28;20050;-65
2023/10/23 00:53:22;;;;;;;3.85;3.35;;;7.10;99.90;;;;;;5108569;28;20050;-65
2023/10/23 00:55:50;;;;;;;6.60;3.35;;;7.10;99.90;;;;;;5109009;28;20454;-64
2023/10/23 00:58:18;;;;;;;3.92;3.35;;;7.10;99.90;;;;;;5109522;28;20083;-65
2023/10/23 01:00:44;;;;;;;4.97;3.30;;;7.10;99.90;;;;;;5109390;28;20056;-64
2023/10/23 01:03:10;;;;;;;5.32;3.53;;;7.00;99.90;;;;;;5108873;28;20039;-65
2023/10/23 01:05:39;;;;;;;6.05;3.58;;;7.00;99.90;;;;;;5109337;28;20043;-65
2023/10/23 01:08:06;;;;;;;3.90;3.05;;;7.00;99.90;;;;;;5109288;28;20508;-65
2023/10/23 01:10:35;;;;;;;3.58;2.97;;;7.00;99.90;;;;;;5109080;28;20060;-65
2023/10/23 01:13:08;;;;;;;4.15;3.40;;;7.00;99.90;;;;;;5108324;28;20062;-65
2023/10/23 01:15:33;;;;;;;;;;;7.00;99.90;;;;;;5106507;28;20072;-65
2023/10/23 01:18:02;;;;;;;5.78;3.15;;;7.00;99.90;;;;;;5109189;28;19924;-65
2023/10/23 01:20:28;;;;;;;4.53;3.58;;;7.00;99.90;;;;;;5108968;28;20044;-65
2023/10/23 01:22:58;;;;;;;4.35;3.45;;;7.00;99.90;;;;;;5109201;28;20080;-65
2023/10/23 01:25:24;;;;;;;5.55;3.47;;;6.90;99.90;;;;;;5108343;28;20118;-65
2023/10/23 01:27:50;;;;;;;6.00;3.80;;;6.90;99.90;;;;;;5109221;28;20131;-65
2023/10/23 01:30:16;;;;;;;4.63;4.13;;;6.90;99.90;;;;;;5091709;28;20047;-65
2023/10/23 01:32:42;;;;;;;5.97;4.07;;;6.90;99.90;;;;;;5108939;28;20048;-65
2023/10/23 01:35:09;;;;;;;5.43;3.80;;;6.90;99.90;;;;;;5107590;28;20078;-65
2023/10/23 01:37:35;;;;;;;5.38;3.65;;;6.90;99.90;;;;;;5108897;28;20047;-65
2023/10/23 01:40:01;;;;;;;5.13;3.67;;;6.90;99.90;;;;;;5092098;28;20047;-66
2023/10/23 01:42:30;;;;;;;4.30;3.50;;;6.80;99.90;;;;;;5108754;28;20035;-64
2023/10/23 01:44:56;;;;;;;3.78;3.38;;;6.80;99.90;;;;;;5090279;28;20046;-65
2023/10/23 01:47:26;;;;;;;5.43;3.55;;;6.80;99.90;;;;;;5089990;28;20047;-65
2023/10/23 01:49:51;;;;;;;4.57;3.35;;;6.70;99.90;;;;;;5091828;28;20110;-65
2023/10/23 01:52:17;;;;;;;5.55;3.58;;;6.60;99.90;;;;;;5108993;28;20127;-64
2023/10/23 01:54:43;;;;;;;4.85;3.85;;;6.60;99.90;;;;;;5108923;28;20049;-65
2023/10/23 01:57:10;;;;;;;4.43;3.67;;;6.60;99.90;;;;;;5107141;28;20096;-65
2023/10/23 01:59:36;;;;;;;3.95;3.55;;;6.60;99.90;;;;;;5108940;28;20486;-65
2023/10/23 02:02:02;;;;;;;4.63;3.70;;;6.60;99.90;;;;;;5105376;28;20043;-64
2023/10/23 02:04:28;;;;;;;4.07;3.40;;;6.60;99.90;;;;;;5108705;28;20509;-65
2023/10/23 02:06:54;;;;;;;3.45;3.15;;;6.60;99.90;;;;;;5108177;28;20040;-64
2023/10/23 02:09:19;;;;;;;4.05;3.65;;;6.60;99.90;;;;;;5091446;28;20039;-66
2023/10/23 02:11:46;;;;;;;2.88;2.67;;;6.60;99.90;;;;;;5108775;28;20036;-65
2023/10/23 02:14:12;;;;;;;3.05;2.47;;;6.60;99.90;;;;;;5108662;28;20051;-64
2023/10/23 02:16:37;;;;;;;2.30;2.10;;;6.60;99.90;;;;;;5108430;28;20039;-65
2023/10/23 02:19:03;;;;;;;2.40;2.08;;;6.60;99.90;;;;;;5104977;28;20051;-65
2023/10/23 02:21:29;;;;;;;2.75;2.25;;;6.60;99.90;;;;;;5091507;28;20115;-65
2023/10/23 02:23:55;;;;;;;2.28;2.08;;;6.60;99.90;;;;;;5109712;28;20545;-65
2023/10/23 02:26:21;;;;;;;3.45;2.20;;;6.50;99.90;;;;;;5107936;28;20044;-65
2023/10/23 02:28:47;;;;;;;2.42;2.08;;;6.50;99.90;;;;;;5110864;28;20039;-65
2023/10/23 02:31:12;;;;;;;3.47;2.70;;;6.50;99.90;;;;;;5112629;28;20035;-65
2023/10/23 02:33:38;;;;;;;3.83;2.97;;;6.50;99.90;;;;;;5097662;28;20123;-65
2023/10/23 02:36:04;;;;;;;2.67;2.47;;;6.40;99.90;;;;;;5085839;28;20460;-64
2023/10/23 02:38:30;;;;;;;5.00;3.00;;;6.30;99.90;;;;;;5107862;28;20044;-65
2023/10/23 02:40:56;;;;;;;5.32;3.25;;;6.30;99.90;;;;;;5101663;28;20036;-64
2023/10/23 02:43:21;;;;;;;4.15;3.38;;;6.30;99.90;;;;;;5091391;28;20105;-65
2023/10/23 02:45:48;;;;;;;4.63;3.15;;;6.30;99.90;;;;;;5093846;28;20075;-65
2023/10/23 02:48:15;;;;;;;3.58;3.28;;;6.30;99.90;;;;;;5101580;28;20036;-65
2023/10/23 02:50:41;;;;;;;3.25;2.95;;;6.30;99.90;;;;;;5093030;28;20079;-65
2023/10/23 02:53:08;;;;;;;4.63;3.42;;;6.30;99.90;;;;;;5091191;28;20079;-65
2023/10/23 02:55:34;;;;;;;3.45;3.15;;;6.30;99.90;;;;;;5106643;28;20041;-65
2023/10/23 02:58:00;;;;;;;4.57;3.65;;;6.20;99.90;;;;;;5108073;28;20123;-65
2023/10/23 03:00:26;;;;;;;4.22;3.58;;;6.30;99.90;;;;;;5092540;28;20052;-65
2023/10/23 03:02:51;;;;;;;5.20;3.50;;;6.20;99.90;;;;;;5090699;28;20151;-64
2023/10/23 03:05:17;;;;;;;4.82;3.58;;;6.20;99.90;;;;;;5095092;28;20437;-65
2023/10/23 03:07:43;;;;;;;4.60;3.22;;;6.20;99.90;;;;;;5104112;28;20074;-64
2023/10/23 03:10:09;;;;;;;4.07;3.58;;;6.20;99.90;;;;;;5104179;28;20394;-64
2023/10/23 03:12:38;;;;;;;5.05;3.63;;;6.20;99.90;;;;;;5090799;28;20398;-65
2023/10/23 03:15:04;;;;;;;4.80;4.00;;;6.20;99.90;;;;;;5090853;28;20044;-65
2023/10/23 03:17:30;;;;;;;3.60;3.30;;;6.20;99.90;;;;;;5076770;28;20079;-65
2023/10/23 03:19:56;;;;;;;4.82;3.50;;;6.20;99.90;;;;;;5093800;28;20040;-64
2023/10/23 03:22:22;;;;;;;3.92;3.45;;;6.20;99.90;;;;;;5097583;28;20075;-65
2023/10/23 03:24:48;;;;;;;3.50;3.20;;;6.20;99.90;;;;;;5097621;28;20043;-64
2023/10/23 03:27:13;;;;;;;4.10;3.70;;;6.20;99.90;;;;;;5090678;28;20134;-65
2023/10/23 03:29:43;;;;;;;3.90;3.50;;;6.20;99.90;;;;;;5091963;28;20058;-65
2023/10/23 03:32:09;;;;;;;3.50;3.20;;;6.30;99.90;;;;;;5094509;27;20135;-65
2023/10/23 03:34:34;;;;;;;3.42;3.13;;;6.30;99.90;;;;;;5114418;27;20067;-65
2023/10/23 03:37:00;;;;;;;4.10;3.08;;;6.30;99.90;;;;;;5114807;27;20046;-65
2023/10/23 03:39:26;;;;;;;4.88;3.47;;;6.30;99.90;;;;;;5113758;27;20112;-65
2023/10/23 03:41:51;;;;;;;4.50;3.80;;;6.20;99.90;;;;;;5114580;27;20072;-66
2023/10/23 03:44:17;;;;;;;5.00;3.28;;;6.20;99.90;;;;;;5113730;27;20046;-65
2023/10/23 03:46:42;;;;;;;3.35;3.10;;;6.20;99.90;;;;;;5113694;27;20058;-65
2023/10/23 03:49:08;;;;;;;4.10;3.40;;;6.20;99.90;;;;;;5114076;27;20035;-65
2023/10/23 03:51:34;;;;;;;4.00;3.05;;;6.20;99.90;;;;;;5114474;27;20038;-65
2023/10/23 03:54:00;;;;;;;3.83;3.13;;;6.20;99.90;;;;;;5113460;27;20037;-65
2023/10/23 03:56:26;;;;;;;3.30;3.00;;;6.20;99.90;;;;;;5114084;27;20043;-66
2023/10/23 03:58:51;;;;;;;6.68;3.30;;;6.20;99.90;;;;;;5114148;27;20038;-65
2023/10/23 04:01:17;;;;;;;3.50;3.20;;;6.20;99.90;;;;;;5132139;27;20039;-64
2023/10/23 04:03:43;;;;;;;3.60;3.30;;;6.20;99.90;;;;;;5113546;27;20110;-65
2023/10/23 04:06:08;;;;;;;3.20;2.90;;;6.20;99.90;;;;;;5112353;27;20068;-64
2023/10/23 04:08:34;;;;;;;3.40;3.10;;;6.20;99.90;;;;;;5114089;27;20035;-65
2023/10/23 04:11:00;;;;;;;4.35;3.50;;;6.20;99.90;;;;;;5095859;27;20047;-65
2023/10/23 04:13:25;;;;;;;3.30;3.00;;;6.20;99.90;;;;;;5113986;27;20035;-65
2023/10/23 04:15:56;;;;;;;3.28;2.22;;;6.10;99.90;;;;;;5096648;27;20074;-65
2023/10/23 04:18:23;;;;;;;2.40;2.15;;;6.10;99.90;;;;;;5113222;27;20039;-65
2023/10/23 04:20:48;;;;;;;3.42;2.47;;;6.10;99.90;;;;;;5113591;27;20062;-65
2023/10/23 04:23:14;;;;;;;3.33;3.00;;;6.10;99.90;;;;;;5112546;27;20054;-65
2023/10/23 04:25:40;;;;;;;4.55;3.15;;;6.00;99.90;;;;;;5112483;27;20432;-65
2023/10/23 04:28:05;;;;;;;4.38;3.78;;;6.00;99.90;;;;;;5113412;27;20131;-65
2023/10/23 04:30:31;;;;;;;4.65;3.70;;;6.00;99.90;;;;;;5113197;27;20175;-66
2023/10/23 04:32:57;;;;;;;3.85;3.45;;;6.00;99.90;;;;;;5113071;27;20425;-65
2023/10/23 04:35:22;;;;;;;4.18;2.90;;;6.00;99.90;;;;;;5112949;27;20080;-65
2023/10/23 04:37:48;;;;;;;2.60;2.40;;;6.00;99.90;;;;;;5113066;27;20115;-65
2023/10/23 04:40:14;;;;;;;3.85;3.20;;;6.00;99.90;;;;;;5112708;27;20050;-64
2023/10/23 04:42:39;;;;;;;4.53;3.95;;;6.00;99.90;;;;;;5095586;27;20062;-65
2023/10/23 04:45:06;;;;;;;6.90;4.40;;;5.90;99.90;;;;;;5094105;27;20163;-64
2023/10/23 04:47:31;;;;;;;6.63;4.15;;;5.80;99.90;;;;;;5112825;27;20046;-65
2023/10/23 04:49:57;;;;;;;4.65;4.25;;;5.80;99.90;;;;;;5112144;28;20035;-65
2023/10/23 04:52:23;;;;;;;4.88;3.95;;;5.80;99.90;;;;;;5112725;27;20070;-65
2023/10/23 04:54:49;;;;;;;5.28;3.83;;;5.70;99.90;;;;;;5112754;27;20535;-65
2023/10/23 04:57:15;;;;;;;4.30;3.55;;;5.70;99.90;;;;;;5112585;27;20047;-64
2023/10/23 04:59:41;;;;;;;4.20;3.80;;;5.70;99.90;;;;;;5112622;28;20046;-65
2023/10/23 05:02:07;;;;;;;5.70;4.35;;;5.60;99.90;;;;;;5112704;27;20398;-65
2023/10/23 05:04:32;;;;;;;4.63;4.20;;;5.70;99.90;;;;;;5113323;27;20083;-65
2023/10/23 05:06:59;;;;;;;4.50;4.10;;;5.60;99.90;;;;;;5112328;27;20074;-65
2023/10/23 05:09:24;;;;;;;7.05;4.18;;;5.70;99.90;;;;;;5111716;28;20061;-65
2023/10/23 05:11:50;;;;;;;4.60;4.10;;;5.70;99.90;;;;;;5131089;27;20035;-65
2023/10/23 05:14:16;;;;;;;4.50;3.97;;;5.70;99.90;;;;;;5112074;27;20091;-65
2023/10/23 05:16:42;;;;;;;4.32;3.88;;;5.70;99.90;;;;;;5112381;27;20588;-65
2023/10/23 05:19:10;;;;;;;4.65;3.97;;;5.70;99.90;;;;;;5112155;28;20042;-65
2023/10/23 05:21:37;;;;;;;4.82;4.32;;;5.80;99.90;;;;;;5111969;28;20039;-66
2023/10/23 05:24:03;;;;;;;5.50;4.22;;;5.80;99.90;;;;;;5113051;28;20046;-66
2023/10/23 05:26:28;;;;;;;4.30;3.60;;;5.70;99.90;;;;;;5112291;28;20019;-65
2023/10/23 05:28:54;;;;;;;4.95;4.00;;;5.70;99.90;;;;;;5112320;28;20114;-65
2023/10/23 05:31:20;;;;;;;4.88;4.15;;;5.70;99.90;;;;;;5112280;28;20031;-64
2023/10/23 05:33:46;;;;;;;3.80;3.38;;;5.80;99.90;;;;;;5094754;28;20115;-65
2023/10/23 05:36:11;;;;;;;4.32;3.00;;;5.80;99.90;;;;;;5112075;28;20047;-65
2023/10/23 05:38:38;;;;;;;6.28;2.83;;;5.90;99.90;;;;;;5112177;28;20039;-66
2023/10/23 05:41:07;;;;;;;3.72;2.60;;;5.80;99.90;;;;;;5113345;28;20516;-65
2023/10/23 05:43:33;;;;;;;4.47;3.65;;;5.80;99.90;;;;;;5112245;28;20035;-65
2023/10/23 05:46:05;;;;;;;2.90;2.60;;;5.80;99.90;;;;;;5094763;28;20458;-65
2023/10/23 05:48:31;;;;;;;2.85;2.58;;;5.80;99.90;;;;;;5095219;28;20035;-65
2023/10/23 05:51:06;;;;;;;4.07;3.25;;;5.70;99.90;;;;;;5110234;28;20039;-65
2023/10/23 05:53:32;;;;;;;3.97;3.58;;;5.70;99.90;;;;;;5093867;28;20793;-65
2023/10/23 05:56:05;;;;;;;4.55;3.42;;;5.60;99.90;;;;;;5112361;28;20039;-65
2023/10/23 05:58:35;;;;;;;4.32;3.92;;;5.60;99.90;;;;;;5110428;28;20481;-65
2023/10/23 06:01:08;;;;;;;4.80;4.28;;;5.50;99.90;;;;;;5110151;27;20765;-65
2023/10/23 06:03:34;;;;;;;4.85;4.03;;;5.40;99.90;;;;;;5114291;27;20035;-64
2023/10/23 06:06:00;;;;;;;5.05;4.20;;;5.40;99.90;;;;;;5115245;27;20074;-65
2023/10/23 06:08:25;;;;;;;4.47;4.05;;;5.50;99.90;;;;;;5115666;27;20070;-65
2023/10/23 06:10:51;;;;;;;7.05;4.55;;;5.50;99.90;;;;;;5115177;27;20031;-66
2023/10/23 06:13:17;;;;;;;7.05;4.95;;;5.50;99.90;;;;;;5115416;27;20039;-67
2023/10/23 06:15:43;;;;;;;6.68;4.75;;;5.50;99.90;;;;;;5112842;27;20370;-65
2023/10/23 06:18:08;;;;;;;6.35;4.82;;;5.50;99.90;;;;;;5115515;27;20078;-65
2023/10/23 06:20:34;;;;;;;3.92;3.63;;;5.60;99.90;;;;;;5115263;27;20035;-66
2023/10/23 06:23:00;;;;;;;3.50;3.00;;;5.60;99.90;;;;;;5115283;27;20031;-65
2023/10/23 06:25:27;;;;;;;4.60;3.83;;;5.60;99.90;;;;;;5112701;27;20050;-67
2023/10/23 06:27:53;;;;;;;6.10;3.70;;;5.60;99.90;;;;;;5098019;27;20390;-65
2023/10/23 06:30:20;;;;;;;3.92;3.53;;;5.60;99.90;;;;;;5114534;27;20039;-67
2023/10/23 06:32:45;;;;;;;4.45;4.03;;;5.60;99.90;;;;;;5113896;27;20493;-66
2023/10/23 06:35:11;;;;;;;5.75;3.95;;;5.50;99.90;;;;;;5114748;27;20091;-66
2023/10/23 06:37:37;;;;;;;4.88;4.38;;;5.50;99.90;;;;;;5115467;27;20035;-66
2023/10/23 06:40:04;;;;;;;4.93;4.40;;;5.50;99.90;;;;;;5132507;27;20038;-67
2023/10/23 06:42:30;;;;;;;6.03;4.63;;;5.60;99.90;;;;;;5114260;27;20035;-66
2023/10/23 06:44:57;;;;;;;9.13;3.92;;;5.60;99.90;;;;;;5113110;27;20405;-65
2023/10/23 06:47:23;;;;;;;5.15;3.53;;;5.70;99.90;;;;;;5113997;27;20495;-64
2023/10/23 06:49:48;;;;;;;4.25;3.85;;;5.70;99.90;;;;;;5112994;27;20035;-66
2023/10/23 06:52:14;;;;;;;5.35;2.90;;;5.80;99.90;;;;;;5115307;27;20039;-66
2023/10/23 06:54:40;;;;;;;3.83;3.47;;;5.70;99.90;;;;;;5115816;27;20042;-66
2023/10/23 06:57:08;;;;;;;5.13;3.22;;;5.70;99.90;;;;;;5115186;27;20054;-65
2023/10/23 06:59:35;;;;;;;3.72;3.42;;;5.80;99.90;;;;;;5114948;27;20076;-66
2023/10/23 07:02:01;;;;;;;4.93;3.05;;;5.80;99.90;;;;;;5114957;27;20504;-63
2023/10/23 07:04:27;;;;;;;4.18;3.08;;;5.70;99.90;;;;;;5114962;27;20035;-64
2023/10/23 07:06:53;;;;;;;4.53;3.58;;;5.80;99.90;;;;;;5115521;27;20031;-64
2023/10/23 07:09:19;;;;;;;6.85;4.72;;;5.80;99.90;;;;;;5114513;27;20071;-64
2023/10/23 07:11:51;;;;;;;8.25;5.38;;;5.80;99.90;;;;;;5114357;27;20063;-64
2023/10/23 07:14:18;;;;;;;6.45;5.07;;;5.80;99.90;;;;;;5113687;27;20039;-64
2023/10/23 07:16:45;;;;;;;6.15;4.97;;;5.90;99.90;;;;;;5114789;27;20039;-64
2023/10/23 07:19:11;;;;;;;8.60;5.13;;;6.00;99.90;;;;;;5114843;27;20045;-64
2023/10/23 07:21:37;;;;;;;5.03;4.53;;;6.00;99.90;;;;;;5114535;27;20043;-63
2023/10/23 07:24:03;;;;;;;6.05;4.45;;;6.10;99.90;;;;;;5114145;27;20077;-64
2023/10/23 07:26:29;;;;;;;5.50;4.68;;;6.20;99.90;;;;;;5114649;27;20058;-64
2023/10/23 07:28:55;;;;;;;7.15;5.75;;;6.30;99.90;;;;;;5133003;27;20039;-63
2023/10/23 07:31:21;;;;;;;6.53;5.10;;;6.40;99.90;;;;;;5097163;27;20053;-63
2023/10/23 07:33:47;;;;;;;5.40;4.90;;;6.50;99.90;;;;;;5132087;27;20088;-63
2023/10/23 07:36:13;;;;;;;6.70;5.65;;;6.60;99.90;;;;;;5114311;27;20031;-63
2023/10/23 07:38:41;;;;;;;6.38;5.63;;;6.60;99.90;;;;;;5114612;27;20469;-66
2023/10/23 07:41:07;;;;;;;8.45;6.38;;;6.80;99.90;;;;;;5097583;27;20039;-67
2023/10/23 07:43:33;;;;;;;6.90;6.20;;;6.90;99.90;;;;;;5114183;27;20091;-66
2023/10/23 07:46:04;;;;;;;10.30;6.63;;;7.00;99.90;;;;;;5114124;27;20178;-66
2023/10/23 07:48:30;;;;;;;9.35;6.70;;;7.20;99.90;;;;;;5114431;27;20039;-67
2023/10/23 07:51:00;;;;;;;6.38;5.78;;;7.40;99.90;;;;;;5132585;27;20366;-66
2023/10/23 07:53:27;;;;;;;6.75;6.05;;;7.50;99.90;;;;;;5114444;27;20070;-64
2023/10/23 07:55:53;;;;;;;8.90;6.57;;;7.70;99.90;;;;;;5131994;27;20092;-64
2023/10/23 07:58:19;;;;;;;8.50;6.57;;;7.80;99.90;;;;;;5113973;27;20039;-64
2023/10/23 08:00:44;;;;;;;9.20;7.55;;;7.90;99.90;;;;;;5113899;27;20042;-64
2023/10/23 08:03:10;;;;;;;12.30;9.27;;;8.00;99.90;;;;;;5114080;27;20043;-63
2023/10/23 08:05:37;;;;;;;13.20;9.48;;;8.10;99.90;;;;;;5096498;27;20039;-64
2023/10/23 08:08:04;;;;;;;13.93;11.20;;;8.20;99.90;;;;;;5113608;27;20034;-64
2023/10/23 08:10:30;;;;;;;16.90;10.98;;;8.30;99.90;;;;;;5114123;27;20061;-64
2023/10/23 08:12:55;;;;;;;19.42;10.48;;;8.30;99.90;;;;;;5113858;27;20027;-64
2023/10/23 08:15:21;;;;;;;17.38;11.18;;;8.30;99.90;;;;;;5113438;27;20049;-64
2023/10/23 08:17:46;;;;;;;16.33;10.40;;;8.40;99.90;;;;;;5113756;27;20103;-64
2023/10/23 08:20:12;;;;;;;11.05;9.40;;;8.40;99.90;;;;;;5113010;27;20043;-65
2023/10/23 08:22:38;;;;;;;12.25;9.57;;;8.50;99.90;;;;;;5113540;27;20039;-66
2023/10/23 08:25:04;;;;;;;12.93;9.70;;;8.60;99.90;;;;;;5113268;27;20043;-64
2023/10/23 08:27:30;;;;;;;13.45;9.73;;;8.60;99.90;;;;;;5113515;27;20394;-64
2023/10/23 08:29:56;;;;;;;11.50;9.98;;;8.80;99.90;;;;;;5113242;27;20095;-64
2023/10/23 08:32:22;;;;;;;11.88;9.63;;;8.90;99.90;;;;;;5109829;28;20448;-63
2023/10/23 08:34:47;;;;;;;12.20;10.20;;;9.10;99.90;;;;;;5110090;28;20399;-65
2023/10/23 08:37:14;;;;;;;11.93;9.95;;;9.20;99.90;;;;;;5108220;28;20050;-64
2023/10/23 08:39:40;;;;;;;9.90;8.90;;;9.20;99.90;;;;;;5109839;28;20410;-64
2023/10/23 08:42:05;;;;;;;9.38;8.38;;;9.40;99.90;;;;;;5109986;28;20559;-64
2023/10/23 08:44:31;;;;;;;14.07;11.50;;;9.40;99.90;;;;;;5109789;28;20035;-64
2023/10/23 08:46:57;;;;;;;15.68;12.82;;;9.50;99.90;;;;;;5109684;28;20482;-65
2023/10/23 08:49:23;;;;;;;10.50;8.98;;;9.60;99.90;;;;;;5109229;28;20032;-64
2023/10/23 08:51:49;;;;;;;10.52;8.38;;;9.80;99.90;;;;;;5110941;28;20031;-64
2023/10/23 08:54:19;;;;;;;9.13;8.07;;;9.90;99.90;;;;;;5110450;28;20039;-64
2023/10/23 08:56:54;;;;;;;9.85;8.85;;;10.00;99.90;;;;;;5108371;28;20055;-65
2023/10/23 08:59:20;;;;;;;10.63;8.40;;;10.20;99.90;;;;;;5090206;28;20498;-64
2023/10/23 09:01:46;;;;;;;8.65;7.70;;;10.30;99.90;;;;;;5109885;28;20139;-65
2023/10/23 09:04:11;;;;;;;8.77;7.85;;;10.50;99.90;;;;;;5109565;28;20071;-64
2023/10/23 09:06:37;;;;;;;8.73;7.82;;;10.80;99.90;;;;;;5109571;28;20401;-65
2023/10/23 09:09:05;;;;;;;8.73;7.20;;;11.00;99.90;;;;;;5109340;28;20051;-65
2023/10/23 09:11:45;;;;;;;7.90;7.10;;;11.20;99.90;;;;;;5108273;28;20120;-65
2023/10/23 09:14:22;;;;;;;8.70;7.38;;;11.50;99.90;;;;;;5124419;27;20478;-64
2023/10/23 09:16:48;;;;;;;8.32;6.88;;;11.70;99.90;;;;;;5109845;28;20424;-64
2023/10/23 09:19:24;;;;;;;7.25;6.55;;;11.80;99.90;;;;;;5108961;28;20052;-64
2023/10/23 09:21:55;;;;;;;7.10;6.40;;;12.00;99.90;;;;;;5109231;28;20035;-64
2023/10/23 09:24:22;;;;;;;6.85;6.15;;;12.20;99.90;;;;;;5108972;28;20043;-64
2023/10/23 09:26:50;;;;;;;7.82;6.75;;;12.30;99.90;;;;;;5110643;28;20032;-65
2023/10/23 09:29:20;;;;;;;8.32;7.40;;;12.50;99.90;;;;;;5110511;28;20115;-62
2023/10/23 09:31:45;;;;;;;8.35;6.97;;;12.60;99.90;;;;;;5107927;28;20371;-63
2023/10/23 09:34:12;;;;;;;9.55;8.55;;;12.80;99.90;;;;;;5112599;28;20047;-63
2023/10/23 09:36:38;;;;;;;8.95;7.72;;;13.00;99.90;;;;;;5114179;27;20084;-63
2023/10/23 09:39:04;;;;;;;8.80;7.90;;;13.10;99.90;;;;;;5117410;27;20042;-63
2023/10/23 09:41:30;;;;;;;9.48;8.48;;;13.20;99.90;;;;;;5116374;27;20122;-62
2023/10/23 09:43:57;;;;;;;9.18;8.15;;;13.10;99.90;;;;;;5116704;27;20039;-65
2023/10/23 09:46:27;;;;;;;9.40;8.35;;;13.10;99.90;;;;;;5099522;27;20047;-64
2023/10/23 09:48:59;;;;;;;8.52;7.63;;;12.90;99.90;;;;;;5117049;27;20034;-64
2023/10/23 09:51:29;;;;;;;8.85;8.05;;;12.60;99.90;;;;;;5115936;27;20405;-63
2023/10/23 09:53:59;;;;;;;15.43;6.82;;;12.20;99.90;;;;;;5135482;27;20535;-63
2023/10/23 09:56:33;;;;;;;37.78;8.43;;;12.00;99.90;;;;;;5116319;27;20049;-63
2023/10/23 09:59:08;;;;;;;38.63;8.27;;;11.60;99.90;;;;;;5116464;27;20043;-63
2023/10/23 10:01:41;;;;;;;20.73;8.95;;;11.30;99.90;;;;;;5116512;27;20047;-64
2023/10/23 10:04:12;;;;;;;56.75;9.93;;;11.00;99.90;;;;;;5134304;27;20043;-65
2023/10/23 10:06:42;;;;;;;34.20;10.70;;;10.80;99.90;;;;;;5134854;27;20086;-63
2023/10/23 10:09:12;;;;;;;42.55;11.70;;;10.70;99.90;;;;;;5116405;27;20078;-63
2023/10/23 10:11:44;;;;;;;18.42;11.38;;;10.60;99.90;;;;;;5113564;27;20038;-64
2023/10/23 10:14:14;;;;;;;20.70;11.57;;;10.60;99.90;;;;;;5114509;27;20039;-64
2023/10/23 10:16:40;;;;;;;13.52;12.10;;;10.50;99.90;;;;;;5115093;27;20043;-63
2023/10/23 10:19:07;;;;;;;13.82;12.27;;;10.60;99.90;;;;;;5116430;27;20038;-64
2023/10/23 10:21:44;;;;;;;13.32;11.13;;;10.60;99.90;;;;;;5116199;27;20486;-64
2023/10/23 10:24:13;;;;;;;15.15;12.52;;;10.60;99.90;;;;;;5115682;27;20040;-63
2023/10/23 10:26:39;;;;;;;14.15;12.65;;;10.80;99.90;;;;;;5115142;27;20046;-62
2023/10/23 10:29:04;;;;;;;14.65;12.45;;;10.80;99.90;;;;;;5115796;27;20035;-61
2023/10/23 10:32:05;;;;;;;14.93;13.05;;;10.80;99.90;;;;;;5132583;27;20095;-62
2023/10/23 10:34:47;;;;;;;14.73;12.75;;;10.90;99.90;;;;;;5110799;27;20039;-62
2023/10/23 10:37:14;;;;;;;15.65;13.95;;;11.00;99.90;;;;;;5112482;27;20043;-62
2023/10/23 10:39:52;;;;;;;19.17;14.35;;;11.10;99.90;;;;;;5110203;27;20043;-62
2023/10/23 10:42:28;;;;;;;16.42;14.73;;;11.10;99.90;;;;;;5110305;27;20074;-62
2023/10/23 10:44:57;;;;;;;16.38;14.35;;;11.20;99.90;;;;;;5114356;27;20043;-63
2023/10/23 10:47:46;;;;;;;16.48;13.93;;;11.20;99.90;;;;;;5113571;27;20043;-62
2023/10/23 10:50:12;;;;;;;16.27;14.52;;;11.20;99.90;;;;;;5095181;28;20042;-62
2023/10/23 10:52:43;;;;;;;17.45;14.23;;;11.30;99.90;;;;;;5115449;27;20035;-62
2023/10/23 10:55:10;;;;;;;20.05;15.18;;;11.30;99.90;;;;;;5113343;27;20047;-62
2023/10/23 10:57:46;;;;;;;16.45;14.68;;;11.30;99.90;;;;;;5133381;27;20042;-61
2023/10/23 11:00:12;;;;;;;18.52;14.57;;;11.40;99.90;;;;;;5117753;27;20035;-62
2023/10/23 11:02:39;;;;;;;16.13;13.15;;;11.40;99.90;;;;;;5114982;27;20050;-64
2023/10/23 11:05:12;;;;;;;15.55;13.60;;;11.40;99.90;;;;;;5117745;27;20125;-63
2023/10/23 11:07:38;;;;;;;15.23;12.75;;;11.40;99.90;;;;;;5098514;27;20096;-62
2023/10/23 11:10:08;;;;;;;13.68;12.23;;;11.40;99.90;;;;;;5114740;27;20104;-63
2023/10/23 11:12:34;;;;;;;14.40;12.07;;;11.40;99.90;;;;;;5114913;27;20100;-62
2023/10/23 11:15:00;;;;;;;15.40;12.60;;;11.50;99.90;;;;;;5116163;27;20059;-61
2023/10/23 11:17:25;;;;;;;13.60;11.70;;;11.40;99.90;;;;;;5133622;27;20077;-62
2023/10/23 11:19:51;;;;;;;13.00;11.57;;;11.40;99.90;;;;;;5114333;27;20066;-62
2023/10/23 11:22:24;;;;;;;16.33;11.88;;;11.40;99.90;;;;;;5114971;27;20525;-62
2023/10/23 11:24:49;;;;;;;13.45;12.00;;;11.50;99.90;;;;;;5097505;27;20031;-62
2023/10/23 11:27:15;;;;;;;14.75;12.27;;;11.50;99.90;;;;;;5133273;27;20035;-61
2023/10/23 11:29:48;;;;;;;13.60;12.10;;;11.50;99.90;;;;;;5114974;27;20556;-62
2023/10/23 11:32:16;;;;;;;14.25;11.40;;;11.50;99.90;;;;;;5133052;27;20086;-62
2023/10/23 11:34:42;;;;;;;15.27;12.00;;;11.60;99.90;;;;;;5132951;27;20038;-61
2023/10/23 11:37:10;;;;;;;13.38;11.98;;;11.60;99.90;;;;;;5114193;27;20485;-62
2023/10/23 11:39:38;;;;;;;13.18;11.75;;;11.60;99.90;;;;;;5114610;27;20034;-62
2023/10/23 11:42:04;;;;;;;14.52;12.38;;;11.60;99.90;;;;;;5113846;27;20046;-62
2023/10/23 11:44:33;;;;;;;13.63;11.77;;;11.60;99.90;;;;;;5114024;27;20051;-62
2023/10/23 11:47:01;;;;;;;13.38;11.90;;;11.60;99.90;;;;;;5130189;27;20035;-63
2023/10/23 11:49:27;;;;;;;14.57;12.13;;;11.60;99.90;;;;;;5122068;27;20085;-62
2023/10/23 11:51:55;;;;;;;14.50;12.10;;;11.70;99.90;;;;;;5114430;27;20466;-62
2023/10/23 11:54:24;;;;;;;17.65;13.13;;;11.60;99.90;;;;;;5108987;27;20039;-63
2023/10/23 11:56:50;;;;;;;14.10;12.52;;;11.60;99.90;;;;;;5129606;27;20095;-63
2023/10/23 11:59:17;;;;;;;14.20;11.93;;;11.70;99.90;;;;;;5132288;27;20039;-62
2023/10/23 12:01:43;;;;;;;14.10;12.38;;;11.70;99.90;;;;;;5114637;27;20039;-62
2023/10/23 12:04:10;;;;;;;14.02;12.27;;;11.70;99.90;;;;;;5114437;27;20039;-62
2023/10/23 12:06:36;;;;;;;16.40;12.80;;;11.80;99.90;;;;;;5114516;27;20500;-62
2023/10/23 12:09:04;;;;;;;16.80;13.77;;;11.80;99.90;;;;;;5132402;27;20426;-63
2023/10/23 12:11:29;;;;;;;16.83;13.65;;;11.90;99.90;;;;;;5114299;27;20023;-62
2023/10/23 12:13:57;;;;;;;14.73;12.52;;;11.80;99.90;;;;;;5114057;27;20046;-62
2023/10/23 12:16:22;;;;;;;17.08;12.85;;;11.90;99.90;;;;;;5132370;27;20489;-62
2023/10/23 12:18:48;;;;;;;14.52;12.50;;;11.80;99.90;;;;;;5113972;27;20032;-62
2023/10/23 12:21:14;;;;;;;16.67;12.32;;;11.80;99.90;;;;;;5132465;27;20035;-62
2023/10/23 12:23:40;;;;;;;14.68;12.45;;;11.90;99.90;;;;;;5114200;27;20163;-62
2023/10/23 12:26:06;;;;;;;13.73;11.85;;;11.90;99.90;;;;;;5113630;27;20036;-63
2023/10/23 12:28:32;;;;;;;14.25;12.57;;;12.00;99.90;;;;;;5113482;27;20031;-62
2023/10/23 12:31:04;;;;;;;14.25;12.10;;;12.10;99.90;;;;;;5113836;27;20076;-62
2023/10/23 12:33:30;;;;;;;12.90;11.50;;;12.20;99.90;;;;;;5113275;27;20062;-62
2023/10/23 12:35:56;;;;;;;16.88;11.73;;;12.20;99.90;;;;;;5132307;27;20046;-62
2023/10/23 12:38:22;;;;;;;13.98;10.98;;;12.30;99.90;;;;;;5113611;27;20039;-62
2023/10/23 12:40:49;;;;;;;13.85;12.00;;;12.30;99.90;;;;;;5131928;27;20041;-63
2023/10/23 12:43:15;;;;;;;12.05;10.68;;;12.20;99.90;;;;;;5112991;27;20058;-62
2023/10/23 12:45:44;;;;;;;12.82;11.30;;;12.20;99.90;;;;;;5113622;27;20043;-61
2023/10/23 12:48:10;;;;;;;14.77;12.15;;;12.20;99.90;;;;;;5112864;27;20072;-62